createdAt,value
2022-08-22T00:01:46.094Z,100029.78
2022-08-22T00:02:53.747Z,100051.00
2022-08-22T00:02:59.227Z,100027.81
2022-08-22T00:03:10.645Z,100063.56
2022-08-22T00:04:20.400Z,100039.59
2022-08-22T00:06:56.849Z,100038.16
2022-08-22T00:09:32.351Z,100038.81
2022-08-22T00:12:07.989Z,100037.16
2022-08-22T00:14:41.499Z,100033.94
2022-08-22T00:17:38.475Z,100039.19
2022-08-22T00:20:09.311Z,100041.22
2022-08-22T00:22:42.524Z,100036.50
2022-08-22T00:25:47.194Z,100038.00
2022-08-22T00:28:18.916Z,100038.44
2022-08-22T00:30:54.790Z,100039.13
2022-08-22T00:33:34.894Z,100040.56
2022-08-22T00:36:14.994Z,100040.50
2022-08-22T00:38:47.782Z,100046.91
2022-08-22T00:41:28.614Z,100040.25
2022-08-22T00:44:37.824Z,100040.44
2022-08-22T00:47:26.284Z,100043.84
2022-08-22T00:50:24.059Z,100036.13
2022-08-22T00:53:11.544Z,100037.22
2022-08-22T00:55:50.228Z,100035.81
2022-08-22T00:59:00.262Z,100036.78
2022-08-22T01:01:52.477Z,100037.53
2022-08-22T01:04:40.164Z,100044.84
2022-08-22T01:07:21.144Z,100035.81
2022-08-22T01:10:02.375Z,100034.44
2022-08-22T01:12:57.949Z,100030.00
2022-08-22T01:15:28.984Z,100026.88
2022-08-22T01:18:12.444Z,100028.78
2022-08-22T01:21:08.338Z,100031.94
2022-08-22T01:24:26.430Z,100033.97
2022-08-22T01:27:33.496Z,100034.00
2022-08-22T01:30:19.941Z,100036.13
2022-08-22T01:33:36.246Z,100039.69
2022-08-22T01:36:23.230Z,100040.91
2022-08-22T01:39:11.043Z,100036.75
2022-08-22T01:42:04.042Z,100039.06
2022-08-22T01:45:02.452Z,100033.84
2022-08-22T01:47:37.649Z,100028.84
2022-08-22T01:50:17.405Z,100022.13
2022-08-22T01:52:50.095Z,100015.03
2022-08-22T01:55:26.566Z,100015.47
2022-08-22T01:57:56.311Z,100019.25
2022-08-22T02:00:34.789Z,100021.31
2022-08-22T02:03:13.263Z,100018.44
2022-08-22T02:05:52.292Z,100022.19
2022-08-22T02:08:30.459Z,100027.81
2022-08-22T02:11:05.106Z,100016.56
2022-08-22T02:13:54.465Z,100024.94
2022-08-22T02:16:32.161Z,100027.84
2022-08-22T02:19:26.237Z,100028.25
2022-08-22T02:22:01.834Z,100036.41
2022-08-22T02:24:50.989Z,100038.69
2022-08-22T02:27:31.562Z,100042.41
2022-08-22T02:30:08.041Z,100040.13
2022-08-22T02:32:45.841Z,100042.84
2022-08-22T02:35:24.191Z,100046.19
2022-08-22T02:38:04.594Z,100045.75
2022-08-22T02:40:39.197Z,100048.88
2022-08-22T02:43:16.423Z,100051.38
2022-08-22T02:45:49.251Z,100049.94
2022-08-22T02:48:33.835Z,100048.88
2022-08-22T02:51:10.491Z,100051.84
2022-08-22T02:53:44.916Z,100057.03
2022-08-22T02:56:19.591Z,100044.75
2022-08-22T02:58:53.443Z,100049.56
2022-08-22T03:01:40.861Z,100051.63
2022-08-22T03:04:44.952Z,100049.56
2022-08-22T03:07:23.114Z,100049.97
2022-08-22T03:10:01.671Z,100057.88
2022-08-22T03:12:33.087Z,100053.91
2022-08-22T03:15:09.791Z,100044.75
2022-08-22T03:17:47.537Z,100045.38
2022-08-22T03:20:22.745Z,100047.25
2022-08-22T03:22:56.401Z,100046.22
2022-08-22T03:25:36.778Z,100052.06
2022-08-22T03:28:10.604Z,100049.56
2022-08-22T03:30:42.977Z,100050.19
2022-08-22T03:33:15.280Z,100053.31
2022-08-22T03:35:59.689Z,100053.97
2022-08-22T03:38:39.453Z,100063.53
2022-08-22T03:41:24.548Z,100066.03
2022-08-22T03:44:09.338Z,100062.72
2022-08-22T03:47:02.740Z,100072.09
2022-08-22T03:50:08.357Z,100066.25
2022-08-22T03:53:05.526Z,100070.03
2022-08-22T03:56:05.272Z,100067.28
2022-08-22T03:59:09.949Z,100061.22
2022-08-22T04:01:57.177Z,100062.72
2022-08-22T04:05:03.285Z,100057.09
2022-08-22T04:07:51.326Z,100056.44
2022-08-22T04:10:48.565Z,100049.78
2022-08-22T04:13:49.460Z,100057.72
2022-08-22T04:16:50.255Z,100069.97
2022-08-22T04:19:40.473Z,100067.09
2022-08-22T04:22:25.563Z,100078.72
2022-08-22T04:25:00.597Z,100068.94
2022-08-22T04:27:36.796Z,100071.66
2022-08-22T04:30:11.376Z,100078.13
2022-08-22T04:32:44.846Z,100075.63
2022-08-22T04:35:19.062Z,100078.78
2022-08-22T04:37:52.360Z,100078.13
2022-08-22T04:40:26.569Z,100084.56
2022-08-22T04:42:58.963Z,100075.63
2022-08-22T04:45:29.861Z,100093.16
2022-08-22T04:48:06.025Z,100079.78
2022-08-22T04:50:42.996Z,100088.53
2022-08-22T04:53:25.929Z,100077.88
2022-08-22T04:56:07.138Z,100068.09
2022-08-22T04:58:46.499Z,100067.22
2022-08-22T05:01:20.309Z,100072.81
2022-08-22T05:03:56.852Z,100071.72
2022-08-22T05:06:28.507Z,100073.44
2022-08-22T05:09:00.725Z,100069.44
2022-08-22T05:11:29.785Z,100067.78
2022-08-22T05:14:02.296Z,100072.56
2022-08-22T05:16:36.201Z,100074.34
2022-08-22T05:19:14.339Z,100074.81
2022-08-22T05:21:45.784Z,100081.47
2022-08-22T05:24:30.351Z,100090.84
2022-08-22T05:27:04.130Z,100087.72
2022-08-22T05:29:32.961Z,100081.06
2022-08-22T05:32:03.559Z,100086.88
2022-08-22T05:34:37.309Z,100093.50
2022-08-22T05:37:09.917Z,100092.06
2022-08-22T05:39:41.650Z,100087.31
2022-08-22T05:42:13.663Z,100083.41
2022-08-22T05:44:41.118Z,100080.91
2022-08-22T05:47:21.533Z,100085.84
2022-08-22T05:49:58.909Z,100089.19
2022-08-22T05:52:40.884Z,100081.22
2022-08-22T05:55:22.965Z,100091.69
2022-08-22T05:57:58.427Z,100092.50
2022-08-22T06:00:30.284Z,100087.09
2022-08-22T06:03:11.725Z,100095.84
2022-08-22T06:05:45.138Z,100093.75
2022-08-22T06:08:27.734Z,100098.78
2022-08-22T06:11:02.639Z,100092.31
2022-08-22T06:13:34.028Z,100095.47
2022-08-22T06:16:09.907Z,100105.00
2022-08-22T06:18:43.012Z,100097.97
2022-08-22T06:21:18.258Z,100098.56
2022-08-22T06:23:49.846Z,100106.88
2022-08-22T06:26:20.691Z,100097.72
2022-08-22T06:28:55.467Z,100105.28
2022-08-22T06:31:27.953Z,100099.03
2022-08-22T06:33:59.902Z,100106.09
2022-08-22T06:36:33.166Z,100103.41
2022-08-22T06:39:10.093Z,100107.56
2022-08-22T06:41:45.117Z,100105.06
2022-08-22T06:44:15.811Z,100112.19
2022-08-22T06:46:46.419Z,100118.69
2022-08-22T06:49:15.100Z,100120.63
2022-08-22T06:51:46.101Z,100118.31
2022-08-22T06:54:18.116Z,100113.13
2022-08-22T06:56:48.881Z,100111.69
2022-08-22T06:59:21.599Z,100117.94
2022-08-22T07:01:54.689Z,100113.16
2022-08-22T07:04:24.951Z,100120.81
2022-08-22T07:06:55.819Z,100122.69
2022-08-22T07:09:25.635Z,100120.81
2022-08-22T07:11:54.849Z,100116.25
2022-08-22T07:14:29.710Z,100116.06
2022-08-22T07:17:00.533Z,100119.00
2022-08-22T07:19:30.870Z,100122.31
2022-08-22T07:22:13.477Z,100120.88
2022-08-22T07:24:47.364Z,100115.44
2022-08-22T07:27:27.526Z,100113.34
2022-08-22T07:30:02.253Z,100112.75
2022-08-22T07:32:41.851Z,100106.28
2022-08-22T07:35:13.739Z,100114.81
2022-08-22T07:37:59.316Z,100113.53
2022-08-22T07:40:32.853Z,100116.91
2022-08-22T07:43:09.099Z,100114.41
2022-08-22T07:45:40.721Z,100116.06
2022-08-22T07:48:25.904Z,100109.63
2022-08-22T07:51:03.703Z,100105.06
2022-08-22T07:53:39.320Z,100107.31
2022-08-22T07:56:09.741Z,100106.28
2022-08-22T07:58:41.003Z,100108.16
2022-08-22T08:01:11.052Z,100105.66
2022-08-22T08:03:39.655Z,100099.00
2022-08-22T08:06:09.447Z,100102.72
2022-08-22T08:08:44.598Z,100100.44
2022-08-22T08:11:16.901Z,100097.75
2022-08-22T08:13:46.036Z,100103.38
2022-08-22T08:16:19.439Z,100103.38
2022-08-22T08:18:48.311Z,100105.44
2022-08-22T08:21:27.961Z,100105.03
2022-08-22T08:23:59.034Z,100111.94
2022-08-22T08:26:33.106Z,100106.09
2022-08-22T08:29:06.355Z,100111.09
2022-08-22T08:31:44.690Z,100107.75
2022-08-22T08:34:18.869Z,100108.81
2022-08-22T08:36:52.058Z,100111.72
2022-08-22T08:39:25.584Z,100107.53
2022-08-22T08:42:32.869Z,100111.28
2022-08-22T08:45:24.354Z,100114.41
2022-08-22T08:48:26.361Z,100101.06
2022-08-22T08:51:08.323Z,100104.81
2022-08-22T08:54:10.345Z,100102.31
2022-08-22T08:56:51.688Z,100103.59
2022-08-22T08:59:32.981Z,100099.41
2022-08-22T09:02:20.357Z,100107.09
2022-08-22T09:05:19.511Z,100102.06
2022-08-22T09:08:31.076Z,100105.41
2022-08-22T09:11:25.230Z,100100.75
2022-08-22T09:14:14.123Z,100105.78
2022-08-22T09:16:55.194Z,100109.06
2022-08-22T09:19:49.837Z,100105.56
2022-08-22T09:25:59.891Z,100107.47
2022-08-22T09:28:34.907Z,100103.72
2022-08-22T09:31:44.947Z,100106.41
2022-08-22T09:34:25.439Z,100102.03
2022-08-22T09:37:15.233Z,100104.13
2022-08-22T09:39:52.688Z,100099.69
2022-08-22T09:42:31.150Z,100093.22
2022-08-22T09:45:39.607Z,100101.97
2022-08-22T09:48:24.137Z,100097.38
2022-08-22T09:51:28.729Z,100099.03
2022-08-22T09:54:32.807Z,100098.16
2022-08-22T09:57:14.480Z,100092.94
2022-08-22T10:00:15.811Z,100094.75
2022-08-22T10:02:51.959Z,100096.19
2022-08-22T10:05:35.148Z,100089.13
2022-08-22T10:08:19.645Z,100091.88
2022-08-22T10:11:07.637Z,100096.56
2022-08-22T10:14:00.646Z,100099.06
2022-08-22T10:16:58.058Z,100097.78
2022-08-22T10:19:32.481Z,100084.03
2022-08-22T10:22:20.840Z,100093.56
2022-08-22T10:24:59.427Z,100083.28
2022-08-22T10:31:26.493Z,100099.66
2022-08-22T10:34:33.166Z,100096.53
2022-08-22T10:37:15.811Z,100098.72
2022-08-22T10:39:58.012Z,100094.25
2022-08-22T10:42:28.966Z,100099.16
2022-08-22T10:45:36.177Z,100091.41
2022-08-22T10:48:35.023Z,100094.72
2022-08-22T10:51:34.056Z,100086.28
2022-08-22T10:54:28.891Z,100093.59
2022-08-22T10:57:14.667Z,100087.66
2022-08-22T11:00:00.763Z,100090.16
2022-08-22T11:02:44.846Z,100092.25
2022-08-22T11:05:43.333Z,100092.88
2022-08-22T11:08:47.384Z,100098.41
2022-08-22T11:11:32.586Z,100090.59
2022-08-22T11:14:19.696Z,100092.72
2022-08-22T11:16:57.351Z,100093.78
2022-08-22T11:19:43.247Z,100076.41
2022-08-22T11:22:27.710Z,100086.63
2022-08-22T11:25:29.285Z,100088.34
2022-08-22T11:28:32.913Z,100085.63
2022-08-22T11:31:12.688Z,100091.00
2022-08-22T11:33:48.784Z,100093.78
2022-08-22T11:36:33.032Z,100099.38
2022-08-22T11:39:18.248Z,100094.41
2022-08-22T11:41:57.653Z,100097.28
2022-08-22T11:44:29.730Z,100096.31
2022-08-22T11:47:01.127Z,100100.66
2022-08-22T11:49:44.013Z,100096.72
2022-08-22T11:52:25.015Z,100105.66
2022-08-22T11:55:23.453Z,100106.59
2022-08-22T11:58:02.831Z,100102.09
2022-08-22T12:00:47.489Z,100103.41
2022-08-22T12:03:46.169Z,100101.63
2022-08-22T12:06:39.380Z,100102.56
2022-08-22T12:09:29.745Z,100100.78
2022-08-22T12:12:06.407Z,100096.25
2022-08-22T12:14:42.840Z,100098.75
2022-08-22T12:17:50.679Z,100103.94
2022-08-22T12:20:31.734Z,100100.78
2022-08-22T12:23:18.689Z,100104.50
2022-08-22T12:26:02.827Z,100104.72
2022-08-22T12:28:40.248Z,100105.75
2022-08-22T12:31:17.108Z,100105.38
2022-08-22T12:34:09.636Z,100102.09
2022-08-22T12:37:11.895Z,100095.34
2022-08-22T12:40:19.382Z,100093.06
2022-08-22T12:42:53.639Z,100088.34
2022-08-22T12:45:45.511Z,100092.28
2022-08-22T12:48:32.001Z,100086.84
2022-08-22T12:51:17.359Z,100091.44
2022-08-22T12:54:26.842Z,100088.47
2022-08-22T12:57:03.164Z,100097.59
2022-08-22T12:59:35.113Z,100091.09
2022-08-22T13:02:14.393Z,100094.31
2022-08-22T13:04:50.748Z,100094.50
2022-08-22T13:07:24.378Z,100096.41
2022-08-22T13:09:59.308Z,100101.06
2022-08-22T13:12:31.975Z,100090.56
2022-08-22T13:15:05.846Z,100093.34
2022-08-22T13:17:42.780Z,100086.13
2022-08-22T13:20:20.156Z,100092.50
2022-08-22T13:22:47.864Z,100096.81
2022-08-22T13:25:25.968Z,100090.94
2022-08-22T13:27:55.014Z,100095.94
2022-08-22T13:30:30.363Z,100090.22
2022-08-22T13:33:05.666Z,100092.63
2022-08-22T13:35:52.341Z,100087.81
2022-08-22T13:38:26.127Z,100087.13
2022-08-22T13:40:57.979Z,100086.81
2022-08-22T13:43:29.462Z,100089.06
2022-08-22T13:46:01.863Z,100093.16
2022-08-22T13:48:46.596Z,100085.81
2022-08-22T13:51:23.057Z,100087.03
2022-08-22T13:54:01.065Z,100087.84
2022-08-22T13:56:44.033Z,100094.22
2022-08-22T13:59:47.003Z,100083.63
2022-08-22T14:02:31.109Z,100093.75
2022-08-22T14:05:05.354Z,100089.22
2022-08-22T14:07:38.611Z,100094.28
2022-08-22T14:10:14.902Z,100087.41
2022-08-22T14:13:04.846Z,100091.72
2022-08-22T14:15:45.684Z,100083.63
2022-08-22T14:18:30.335Z,100077.59
2022-08-22T14:21:27.808Z,100073.94
2022-08-22T14:23:58.859Z,100078.63
2022-08-22T14:26:32.982Z,100067.72
2022-08-22T14:29:12.340Z,100081.66
2022-08-22T14:31:40.402Z,100071.91
2022-08-22T14:34:13.756Z,100066.00
2022-08-22T14:36:47.935Z,100069.78
2022-08-22T14:39:26.168Z,100067.44
2022-08-22T14:42:04.082Z,100071.09
2022-08-22T14:44:40.488Z,100072.00
2022-08-22T14:47:54.397Z,100073.66
2022-08-22T14:50:09.578Z,100076.06
2022-08-22T14:52:42.610Z,100073.78
2022-08-22T14:55:23.508Z,100065.78
2022-08-22T14:57:54.698Z,100069.34
2022-08-22T15:00:37.696Z,100072.44
2022-08-22T15:03:12.807Z,100067.44
2022-08-22T15:05:45.728Z,100071.91
2022-08-22T15:08:21.521Z,100069.28
2022-08-22T15:11:07.530Z,100071.53
2022-08-22T15:13:38.423Z,100069.56
2022-08-22T15:16:17.577Z,100064.69
2022-08-22T15:18:52.131Z,100063.25
2022-08-22T15:21:25.398Z,100071.91
2022-08-22T15:23:55.940Z,100068.56
2022-08-22T15:26:28.178Z,100078.06
2022-08-22T15:29:07.389Z,100073.78
2022-08-22T15:31:40.685Z,100070.00
2022-08-22T15:34:22.610Z,100064.91
2022-08-22T15:37:22.428Z,100073.56
2022-08-22T15:40:08.100Z,100065.09
2022-08-22T15:42:42.148Z,100068.88
2022-08-22T15:45:21.453Z,100057.91
2022-08-22T15:47:54.043Z,100064.88
2022-08-22T15:50:35.147Z,100067.13
2022-08-22T15:53:18.870Z,100053.66
2022-08-22T15:56:27.981Z,100054.47
2022-08-22T15:59:31.348Z,100062.13
2022-08-22T16:02:30.448Z,100069.34
2022-08-22T16:05:21.948Z,100063.66
2022-08-22T16:07:59.600Z,100063.66
2022-08-22T16:10:35.058Z,100065.06
2022-08-22T16:13:13.929Z,100065.56
2022-08-22T16:16:04.393Z,100070.56
2022-08-22T16:19:14.383Z,100071.63
2022-08-22T16:22:13.859Z,100060.91
2022-08-22T16:25:10.465Z,100066.75
2022-08-22T16:27:55.256Z,100064.66
2022-08-22T16:30:40.120Z,100068.16
2022-08-22T16:33:12.190Z,100079.25
2022-08-22T16:36:21.355Z,100074.69
2022-08-22T16:38:54.669Z,100072.84
2022-08-22T16:41:32.909Z,100069.72
2022-08-22T16:44:23.319Z,100075.28
2022-08-22T16:46:54.063Z,100074.09
2022-08-22T16:49:27.748Z,100070.06
2022-08-22T16:52:24.673Z,100072.78
2022-08-22T16:54:56.788Z,100076.69
2022-08-22T16:57:37.511Z,100072.56
2022-08-22T17:00:10.085Z,100076.50
2022-08-22T17:03:00.176Z,100078.00
2022-08-22T17:05:47.619Z,100081.50
2022-08-22T17:08:30.846Z,100080.53
2022-08-22T17:11:17.310Z,100092.34
2022-08-22T17:14:07.813Z,100087.13
2022-08-22T17:16:54.061Z,100089.59
2022-08-22T17:19:44.170Z,100089.00
2022-08-22T17:22:29.127Z,100088.91
2022-08-22T17:25:12.727Z,100094.22
2022-08-22T17:27:47.087Z,100095.13
2022-08-22T17:30:22.978Z,100097.47
2022-08-22T17:33:09.785Z,100088.53
2022-08-22T17:35:47.251Z,100088.41
2022-08-22T17:38:27.090Z,100088.00
2022-08-22T17:41:04.419Z,100093.47
2022-08-22T17:43:49.796Z,100089.16
2022-08-22T17:46:36.225Z,100094.53
2022-08-22T17:49:16.758Z,100096.03
2022-08-22T17:51:53.187Z,100096.88
2022-08-22T17:54:29.917Z,100095.53
2022-08-22T17:57:05.927Z,100099.53
2022-08-22T17:59:45.823Z,100094.81
2022-08-22T18:02:17.330Z,100109.06
2022-08-22T18:04:52.373Z,100103.00
2022-08-22T18:07:39.038Z,100099.59
2022-08-22T18:10:12.347Z,100104.91
2022-08-22T18:12:45.952Z,100112.44
2022-08-22T18:15:23.241Z,100112.16
2022-08-22T18:17:56.599Z,100108.28
2022-08-22T18:20:30.682Z,100112.91
2022-08-22T18:23:03.541Z,100115.03
2022-08-22T18:25:41.959Z,100109.59
2022-08-22T18:28:21.898Z,100106.41
2022-08-22T18:30:58.014Z,100110.69
2022-08-22T18:33:32.905Z,100111.63
2022-08-22T18:36:08.700Z,100099.66
2022-08-22T18:38:49.083Z,100102.00
2022-08-22T18:41:26.364Z,100100.41
2022-08-22T18:43:54.375Z,100099.22
2022-08-22T18:46:41.451Z,100110.03
2022-08-22T18:49:32.065Z,100102.47
2022-08-22T18:52:32.904Z,100107.91
2022-08-22T18:55:20.048Z,100112.22
2022-08-22T18:58:03.051Z,100120.09
2022-08-22T19:00:52.597Z,100120.84
2022-08-22T19:03:39.876Z,100114.50
2022-08-22T19:06:37.109Z,100122.44
2022-08-22T19:09:37.550Z,100116.03
2022-08-22T19:12:19.856Z,100126.97
2022-08-22T19:15:15.432Z,100118.44
2022-08-22T19:18:03.945Z,100116.84
2022-08-22T19:20:37.794Z,100123.50
2022-08-22T19:23:42.222Z,100117.53
2022-08-22T19:26:35.407Z,100110.28
2022-08-22T19:29:10.835Z,100115.81
2022-08-22T19:31:46.737Z,100119.66
2022-08-22T19:34:33.713Z,100125.63
2022-08-22T19:37:32.410Z,100119.19
2022-08-22T19:40:02.684Z,100116.53
2022-08-22T19:42:38.938Z,100117.66
2022-08-22T19:45:18.807Z,100117.38
2022-08-22T19:47:57.086Z,100115.09
2022-08-22T19:50:31.078Z,100115.53
2022-08-22T19:53:11.317Z,100111.75
2022-08-22T19:55:54.911Z,100120.09
2022-08-22T19:58:32.064Z,100119.66
2022-08-22T20:01:24.628Z,100115.31
2022-08-22T20:03:58.973Z,100111.84
2022-08-22T20:06:48.018Z,100113.88
2022-08-22T20:09:39.065Z,100106.03
2022-08-22T20:12:15.468Z,100108.13
2022-08-22T20:14:46.286Z,100111.06
2022-08-22T20:17:30.414Z,100106.22
2022-08-22T20:20:17.791Z,100104.44
2022-08-22T20:22:52.955Z,100102.91
2022-08-22T20:25:43.078Z,100101.56
2022-08-22T20:28:34.522Z,100095.38
2022-08-22T20:31:10.406Z,100097.25
2022-08-22T20:33:42.002Z,100088.41
2022-08-22T20:36:27.344Z,100093.38
2022-08-22T20:39:00.034Z,100084.31
2022-08-22T20:41:32.506Z,100069.00
2022-08-22T20:44:06.155Z,100077.59
2022-08-22T20:46:53.366Z,100081.44
2022-08-22T20:49:24.884Z,100076.34
2022-08-22T20:51:57.193Z,100076.88
2022-08-22T20:54:24.925Z,100071.84
2022-08-22T20:56:55.393Z,100071.22
2022-08-22T20:59:31.893Z,100078.72
2022-08-22T21:02:07.601Z,100072.59
2022-08-22T21:04:43.094Z,100080.06
2022-08-22T21:07:11.964Z,100077.22
2022-08-22T21:09:40.620Z,100073.84
2022-08-22T21:12:08.273Z,100074.66
2022-08-22T21:14:38.043Z,100070.06
2022-08-22T21:17:25.094Z,100069.59
2022-08-22T21:19:53.088Z,100068.13
2022-08-22T21:22:29.239Z,100065.16
2022-08-22T21:25:00.309Z,100055.28
2022-08-22T21:27:30.943Z,100049.81
2022-08-22T21:30:00.203Z,100044.00
2022-08-22T21:32:34.004Z,100046.94
2022-08-22T21:35:03.624Z,100041.94
2022-08-22T21:37:37.828Z,100036.75
2022-08-22T21:40:14.612Z,100036.38
2022-08-22T21:42:44.752Z,100039.81
2022-08-22T21:45:28.680Z,100034.97
2022-08-22T21:47:56.598Z,100039.56
2022-08-22T21:50:31.792Z,100027.41
2022-08-22T21:53:10.171Z,100028.69
2022-08-22T21:55:40.939Z,100034.34
2022-08-22T21:58:12.688Z,100030.34
2022-08-22T22:00:49.801Z,100038.50
2022-08-22T22:03:19.571Z,100034.84
2022-08-22T22:05:47.376Z,100034.03
2022-08-22T22:08:17.013Z,100035.44
2022-08-22T22:10:46.288Z,100035.97
2022-08-22T22:13:14.479Z,100034.22
2022-08-22T22:15:44.042Z,100043.25
2022-08-22T22:18:12.492Z,100038.34
2022-08-22T22:20:41.109Z,100041.38
2022-08-22T22:23:08.862Z,100044.75
2022-08-22T22:25:42.145Z,100041.66
2022-08-22T22:28:14.433Z,100036.59
2022-08-22T22:30:42.626Z,100027.59
2022-08-22T22:33:10.461Z,100036.53
2022-08-22T22:35:40.085Z,100032.34
2022-08-22T22:38:07.850Z,100031.13
2022-08-22T22:40:35.498Z,100032.66
2022-08-22T22:43:04.773Z,100032.44
2022-08-22T22:45:32.087Z,100030.81
2022-08-22T22:47:59.899Z,100026.75
2022-08-22T22:50:27.831Z,100030.69
2022-08-22T22:52:55.089Z,100021.31
2022-08-22T22:55:24.535Z,100029.72
2022-08-22T22:57:58.747Z,100022.22
2022-08-22T23:00:30.926Z,100029.00
2022-08-22T23:03:00.169Z,100030.91
2022-08-22T23:05:28.132Z,100030.06
2022-08-22T23:07:55.540Z,100025.84
2022-08-22T23:10:23.643Z,100025.97
2022-08-22T23:12:50.858Z,100024.50
2022-08-22T23:15:18.132Z,100025.97
2022-08-22T23:17:47.207Z,100021.16
2022-08-22T23:20:14.473Z,100015.34
2022-08-22T23:22:43.674Z,100018.53
2022-08-22T23:25:11.470Z,100020.84
2022-08-22T23:27:38.947Z,100020.00
2022-08-22T23:30:08.014Z,100015.88
2022-08-22T23:32:36.015Z,100017.00
2022-08-22T23:35:05.809Z,100015.78
2022-08-22T23:37:32.998Z,100019.50
2022-08-22T23:40:00.657Z,100011.94
2022-08-22T23:42:28.059Z,100005.97
2022-08-22T23:44:55.330Z,100003.78
2022-08-22T23:47:22.956Z,100012.00
2022-08-22T23:49:50.326Z,100011.00
2022-08-22T23:52:19.103Z,100008.38
2022-08-22T23:54:46.614Z,100008.75
2022-08-22T23:57:14.518Z,100001.56
2022-08-22T23:59:48.012Z,100002.72
